sensor_id;sensor_type;location;lat;lon;timestamp;temperature;humidity
74934;DHT22;63499;53.232;7.492;2022-12-18T00:01:39;-3.20;99.90
74934;DHT22;63499;53.232;7.492;2022-12-18T00:04:06;-3.10;99.90
74934;DHT22;63499;53.232;7.492;2022-12-18T00:06:33;-3.20;99.90
74934;DHT22;63499;53.232;7.492;2022-12-18T00:09:00;-3.20;99.90
74934;DHT22;63499;53.232;7.492;2022-12-18T00:11:28;-3.30;99.90
74934;DHT22;63499;53.232;7.492;2022-12-18T00:13:55;-3.40;99.90
74934;DHT22;63499;53.232;7.492;2022-12-18T00:16:22;-3.50;99.90
74934;DHT22;63499;53.232;7.492;2022-12-18T00:18:49;-3.50;99.90
74934;DHT22;63499;53.232;7.492;2022-12-18T00:21:16;-3.60;99.90
74934;DHT22;63499;53.232;7.492;2022-12-18T00:23:43;-3.60;99.90
74934;DHT22;63499;53.232;7.492;2022-12-18T00:26:10;-3.60;99.90
74934;DHT22;63499;53.232;7.492;2022-12-18T00:28:37;-3.60;99.90
74934;DHT22;63499;53.232;7.492;2022-12-18T00:31:07;-3.60;99.90
74934;DHT22;63499;53.232;7.492;2022-12-18T00:33:34;-3.60;99.90
74934;DHT22;63499;53.232;7.492;2022-12-18T00:36:08;-3.50;99.90
74934;DHT22;63499;53.232;7.492;2022-12-18T00:38:35;-3.50;99.90
74934;DHT22;63499;53.232;7.492;2022-12-18T00:41:01;-3.50;99.90
74934;DHT22;63499;53.232;7.492;2022-12-18T00:43:27;-3.60;99.90
74934;DHT22;63499;53.232;7.492;2022-12-18T00:45:54;-3.60;99.90
74934;DHT22;63499;53.232;7.492;2022-12-18T00:48:20;-3.70;99.90
74934;DHT22;63499;53.232;7.492;2022-12-18T00:50:48;-3.70;99.90
74934;DHT22;63499;53.232;7.492;2022-12-18T00:53:14;-3.70;99.90
74934;DHT22;63499;53.232;7.492;2022-12-18T00:55:41;-3.70;99.90
74934;DHT22;63499;53.232;7.492;2022-12-18T00:58:07;-3.60;99.90
74934;DHT22;63499;53.232;7.492;2022-12-18T01:00:35;-3.70;99.90
74934;DHT22;63499;53.232;7.492;2022-12-18T01:03:01;-3.70;99.90
74934;DHT22;63499;53.232;7.492;2022-12-18T01:05:28;-3.80;99.90
74934;DHT22;63499;53.232;7.492;2022-12-18T01:07:54;-3.90;99.90
74934;DHT22;63499;53.232;7.492;2022-12-18T01:10:21;-3.90;99.90
74934;DHT22;63499;53.232;7.492;2022-12-18T01:12:47;-3.90;99.90
74934;DHT22;63499;53.232;7.492;2022-12-18T01:15:13;-3.90;99.90
74934;DHT22;63499;53.232;7.492;2022-12-18T01:17:39;-3.90;99.90
74934;DHT22;63499;53.232;7.492;2022-12-18T01:20:05;-3.80;99.90
74934;DHT22;63499;53.232;7.492;2022-12-18T01:22:32;-3.80;99.90
74934;DHT22;63499;53.232;7.492;2022-12-18T01:24:59;-3.90;99.90
74934;DHT22;63499;53.232;7.492;2022-12-18T01:27:26;-3.90;99.90
74934;DHT22;63499;53.232;7.492;2022-12-18T01:29:52;-4.00;99.90
74934;DHT22;63499;53.232;7.492;2022-12-18T01:32:19;-4.00;99.90
74934;DHT22;63499;53.232;7.492;2022-12-18T01:34:45;-4.10;99.90
74934;DHT22;63499;53.232;7.492;2022-12-18T01:37:11;-4.10;99.90
74934;DHT22;63499;53.232;7.492;2022-12-18T01:39:37;-4.10;99.90
74934;DHT22;63499;53.232;7.492;2022-12-18T01:42:05;-4.10;99.90
74934;DHT22;63499;53.232;7.492;2022-12-18T01:49:59;-4.10;99.90
74934;DHT22;63499;53.232;7.492;2022-12-18T01:52:28;-4.10;99.90
74934;DHT22;63499;53.232;7.492;2022-12-18T01:54:55;-4.20;99.90
74934;DHT22;63499;53.232;7.492;2022-12-18T01:57:21;-4.20;99.90
74934;DHT22;63499;53.232;7.492;2022-12-18T01:59:49;-4.20;99.90
74934;DHT22;63499;53.232;7.492;2022-12-18T02:02:18;-4.20;99.90
74934;DHT22;63499;53.232;7.492;2022-12-18T02:04:45;-4.20;99.90
74934;DHT22;63499;53.232;7.492;2022-12-18T02:09:40;-4.30;99.90
74934;DHT22;63499;53.232;7.492;2022-12-18T02:12:25;-4.30;99.90
74934;DHT22;63499;53.232;7.492;2022-12-18T02:14:55;-4.30;99.90
74934;DHT22;63499;53.232;7.492;2022-12-18T02:17:30;-4.30;99.90
74934;DHT22;63499;53.232;7.492;2022-12-18T02:20:20;-4.30;99.90
74934;DHT22;63499;53.232;7.492;2022-12-18T02:22:58;-4.40;99.90
74934;DHT22;63499;53.232;7.492;2022-12-18T02:25:40;-4.40;99.90
74934;DHT22;63499;53.232;7.492;2022-12-18T02:28:09;-4.40;99.90
74934;DHT22;63499;53.232;7.492;2022-12-18T02:30:37;-4.50;99.90
74934;DHT22;63499;53.232;7.492;2022-12-18T02:33:04;-4.40;99.90
74934;DHT22;63499;53.232;7.492;2022-12-18T02:35:32;-4.40;99.90
74934;DHT22;63499;53.232;7.492;2022-12-18T02:38:01;-4.30;99.90
74934;DHT22;63499;53.232;7.492;2022-12-18T02:40:32;-4.40;99.90
74934;DHT22;63499;53.232;7.492;2022-12-18T02:43:17;-4.40;99.90
74934;DHT22;63499;53.232;7.492;2022-12-18T02:45:52;-4.40;99.90
74934;DHT22;63499;53.232;7.492;2022-12-18T02:48:22;-4.40;99.90
74934;DHT22;63499;53.232;7.492;2022-12-18T02:50:59;-4.40;99.90
74934;DHT22;63499;53.232;7.492;2022-12-18T02:54:01;-4.50;99.90
74934;DHT22;63499;53.232;7.492;2022-12-18T02:56:30;-4.50;99.90
74934;DHT22;63499;53.232;7.492;2022-12-18T02:59:06;-4.50;99.90
74934;DHT22;63499;53.232;7.492;2022-12-18T03:04:30;-4.60;99.90
74934;DHT22;63499;53.232;7.492;2022-12-18T03:07:02;-4.60;99.90
74934;DHT22;63499;53.232;7.492;2022-12-18T03:09:37;-4.60;99.90
74934;DHT22;63499;53.232;7.492;2022-12-18T03:12:07;-4.70;99.90
74934;DHT22;63499;53.232;7.492;2022-12-18T03:15:08;-4.70;99.90
74934;DHT22;63499;53.232;7.492;2022-12-18T03:17:36;-4.70;99.90
74934;DHT22;63499;53.232;7.492;2022-12-18T03:20:10;-4.70;99.90
74934;DHT22;63499;53.232;7.492;2022-12-18T03:22:38;-4.70;99.90
74934;DHT22;63499;53.232;7.492;2022-12-18T03:25:06;-4.70;99.90
74934;DHT22;63499;53.232;7.492;2022-12-18T03:27:34;-4.70;99.90
74934;DHT22;63499;53.232;7.492;2022-12-18T03:30:08;-4.60;99.90
74934;DHT22;63499;53.232;7.492;2022-12-18T03:35:06;-4.60;99.90
74934;DHT22;63499;53.232;7.492;2022-12-18T03:37:36;-4.60;99.90
74934;DHT22;63499;53.232;7.492;2022-12-18T03:40:03;-4.70;99.90
74934;DHT22;63499;53.232;7.492;2022-12-18T03:50:25;-4.70;99.90
74934;DHT22;63499;53.232;7.492;2022-12-18T03:55:40;-4.70;99.90
74934;DHT22;63499;53.232;7.492;2022-12-18T03:58:07;-4.70;99.90
74934;DHT22;63499;53.232;7.492;2022-12-18T04:00:50;-4.80;99.90
74934;DHT22;63499;53.232;7.492;2022-12-18T04:03:19;-4.80;99.90
74934;DHT22;63499;53.232;7.492;2022-12-18T04:05:49;-4.90;99.90
74934;DHT22;63499;53.232;7.492;2022-12-18T04:08:18;-4.90;99.90
74934;DHT22;63499;53.232;7.492;2022-12-18T04:10:52;-4.90;99.90
74934;DHT22;63499;53.232;7.492;2022-12-18T04:13:37;-5.00;99.90
74934;DHT22;63499;53.232;7.492;2022-12-18T04:16:08;-5.00;99.90
74934;DHT22;63499;53.232;7.492;2022-12-18T04:18:39;-5.00;99.90
74934;DHT22;63499;53.232;7.492;2022-12-18T04:21:05;-5.00;99.90
74934;DHT22;63499;53.232;7.492;2022-12-18T04:23:31;-5.00;99.90
74934;DHT22;63499;53.232;7.492;2022-12-18T04:25:58;-5.10;99.90
74934;DHT22;63499;53.232;7.492;2022-12-18T04:28:40;-5.10;99.90
74934;DHT22;63499;53.232;7.492;2022-12-18T04:31:06;-5.10;99.90
74934;DHT22;63499;53.232;7.492;2022-12-18T04:33:32;-5.10;99.90
74934;DHT22;63499;53.232;7.492;2022-12-18T04:35:59;-5.10;99.90
74934;DHT22;63499;53.232;7.492;2022-12-18T04:38:25;-5.20;99.90
74934;DHT22;63499;53.232;7.492;2022-12-18T04:41:00;-5.20;99.90
74934;DHT22;63499;53.232;7.492;2022-12-18T04:43:26;-5.20;99.90
74934;DHT22;63499;53.232;7.492;2022-12-18T04:45:53;-5.20;99.90
74934;DHT22;63499;53.232;7.492;2022-12-18T04:48:20;-5.20;99.90
74934;DHT22;63499;53.232;7.492;2022-12-18T04:50:46;-5.20;99.90
74934;DHT22;63499;53.232;7.492;2022-12-18T04:53:12;-5.20;99.90
74934;DHT22;63499;53.232;7.492;2022-12-18T04:55:38;-5.10;99.90
74934;DHT22;63499;53.232;7.492;2022-12-18T04:58:04;-5.10;99.90
74934;DHT22;63499;53.232;7.492;2022-12-18T05:00:31;-5.10;99.90
74934;DHT22;63499;53.232;7.492;2022-12-18T05:02:57;-5.10;99.90
74934;DHT22;63499;53.232;7.492;2022-12-18T05:05:23;-5.10;99.90
74934;DHT22;63499;53.232;7.492;2022-12-18T05:07:49;-5.20;99.90
74934;DHT22;63499;53.232;7.492;2022-12-18T05:10:15;-5.10;99.90
74934;DHT22;63499;53.232;7.492;2022-12-18T05:12:41;-5.10;99.90
74934;DHT22;63499;53.232;7.492;2022-12-18T05:15:29;-5.10;99.90
74934;DHT22;63499;53.232;7.492;2022-12-18T05:17:57;-5.10;99.90
74934;DHT22;63499;53.232;7.492;2022-12-18T05:20:23;-5.20;99.90
74934;DHT22;63499;53.232;7.492;2022-12-18T05:22:50;-5.10;99.90
74934;DHT22;63499;53.232;7.492;2022-12-18T05:25:17;-5.10;99.90
74934;DHT22;63499;53.232;7.492;2022-12-18T05:27:43;-5.20;99.90
74934;DHT22;63499;53.232;7.492;2022-12-18T05:30:10;-5.20;99.90
74934;DHT22;63499;53.232;7.492;2022-12-18T05:32:36;-5.30;99.90
74934;DHT22;63499;53.232;7.492;2022-12-18T05:35:02;-5.40;99.90
74934;DHT22;63499;53.232;7.492;2022-12-18T05:37:29;-5.40;99.90
74934;DHT22;63499;53.232;7.492;2022-12-18T05:39:55;-5.40;99.90
74934;DHT22;63499;53.232;7.492;2022-12-18T05:42:21;-5.50;99.90
74934;DHT22;63499;53.232;7.492;2022-12-18T05:44:47;-5.50;99.90
74934;DHT22;63499;53.232;7.492;2022-12-18T05:47:14;-5.50;99.90
74934;DHT22;63499;53.232;7.492;2022-12-18T05:49:40;-5.60;99.90
74934;DHT22;63499;53.232;7.492;2022-12-18T05:52:06;-5.60;99.90
74934;DHT22;63499;53.232;7.492;2022-12-18T05:54:32;-5.50;99.90
74934;DHT22;63499;53.232;7.492;2022-12-18T05:56:59;-5.50;99.90
74934;DHT22;63499;53.232;7.492;2022-12-18T05:59:25;-5.50;99.90
74934;DHT22;63499;53.232;7.492;2022-12-18T06:01:51;-5.40;99.90
74934;DHT22;63499;53.232;7.492;2022-12-18T06:04:17;-5.40;99.90
74934;DHT22;63499;53.232;7.492;2022-12-18T06:06:44;-5.40;99.90
74934;DHT22;63499;53.232;7.492;2022-12-18T06:09:10;-5.40;99.90
74934;DHT22;63499;53.232;7.492;2022-12-18T06:11:36;-5.40;99.90
74934;DHT22;63499;53.232;7.492;2022-12-18T06:14:03;-5.50;99.90
74934;DHT22;63499;53.232;7.492;2022-12-18T06:16:30;-5.50;99.90
74934;DHT22;63499;53.232;7.492;2022-12-18T06:18:57;-5.50;99.90
74934;DHT22;63499;53.232;7.492;2022-12-18T06:21:23;-5.50;99.90
74934;DHT22;63499;53.232;7.492;2022-12-18T06:23:49;-5.50;99.90
74934;DHT22;63499;53.232;7.492;2022-12-18T06:26:15;-5.60;99.90
74934;DHT22;63499;53.232;7.492;2022-12-18T06:28:41;-5.60;99.90
74934;DHT22;63499;53.232;7.492;2022-12-18T06:31:08;-5.60;99.90
74934;DHT22;63499;53.232;7.492;2022-12-18T06:33:34;-5.60;99.90
74934;DHT22;63499;53.232;7.492;2022-12-18T06:36:05;-5.60;99.90
74934;DHT22;63499;53.232;7.492;2022-12-18T06:38:32;-5.60;99.90
74934;DHT22;63499;53.232;7.492;2022-12-18T06:40:59;-5.60;99.90
74934;DHT22;63499;53.232;7.492;2022-12-18T06:43:25;-5.60;99.90
74934;DHT22;63499;53.232;7.492;2022-12-18T06:45:57;-5.60;99.90
74934;DHT22;63499;53.232;7.492;2022-12-18T06:48:23;-5.60;99.90
74934;DHT22;63499;53.232;7.492;2022-12-18T06:50:49;-5.70;99.90
74934;DHT22;63499;53.232;7.492;2022-12-18T06:53:15;-5.70;99.90
74934;DHT22;63499;53.232;7.492;2022-12-18T06:55:41;-5.80;99.90
74934;DHT22;63499;53.232;7.492;2022-12-18T06:58:08;-5.90;99.90
74934;DHT22;63499;53.232;7.492;2022-12-18T07:00:34;-5.90;99.90
74934;DHT22;63499;53.232;7.492;2022-12-18T07:03:00;-5.90;99.90
74934;DHT22;63499;53.232;7.492;2022-12-18T07:05:28;-5.90;99.90
74934;DHT22;63499;53.232;7.492;2022-12-18T07:07:54;-6.00;99.90
74934;DHT22;63499;53.232;7.492;2022-12-18T07:10:20;-6.00;99.90
74934;DHT22;63499;53.232;7.492;2022-12-18T07:12:46;-6.00;99.90
74934;DHT22;63499;53.232;7.492;2022-12-18T07:15:12;-6.00;99.90
74934;DHT22;63499;53.232;7.492;2022-12-18T07:17:38;-6.00;99.90
74934;DHT22;63499;53.232;7.492;2022-12-18T07:20:04;-6.10;99.90
74934;DHT22;63499;53.232;7.492;2022-12-18T07:22:31;-6.00;99.90
74934;DHT22;63499;53.232;7.492;2022-12-18T07:24:57;-6.00;99.90
74934;DHT22;63499;53.232;7.492;2022-12-18T07:27:23;-6.00;99.90
74934;DHT22;63499;53.232;7.492;2022-12-18T07:29:49;-6.00;99.90
74934;DHT22;63499;53.232;7.492;2022-12-18T07:32:15;-6.00;99.90
74934;DHT22;63499;53.232;7.492;2022-12-18T07:34:41;-6.00;99.90
74934;DHT22;63499;53.232;7.492;2022-12-18T07:37:07;-6.00;99.90
74934;DHT22;63499;53.232;7.492;2022-12-18T07:39:34;-6.00;99.90
74934;DHT22;63499;53.232;7.492;2022-12-18T07:42:00;-6.00;99.90
74934;DHT22;63499;53.232;7.492;2022-12-18T07:44:45;-6.00;99.90
74934;DHT22;63499;53.232;7.492;2022-12-18T07:47:11;-6.00;99.90
74934;DHT22;63499;53.232;7.492;2022-12-18T07:49:37;-5.90;99.90
74934;DHT22;63499;53.232;7.492;2022-12-18T07:52:03;-5.90;99.90
74934;DHT22;63499;53.232;7.492;2022-12-18T07:54:30;-5.90;99.90
74934;DHT22;63499;53.232;7.492;2022-12-18T07:56:56;-6.00;99.90
74934;DHT22;63499;53.232;7.492;2022-12-18T07:59:22;-6.00;99.90
74934;DHT22;63499;53.232;7.492;2022-12-18T08:01:48;-6.00;99.90
74934;DHT22;63499;53.232;7.492;2022-12-18T08:04:14;-6.00;99.90
74934;DHT22;63499;53.232;7.492;2022-12-18T08:06:40;-6.00;99.90
74934;DHT22;63499;53.232;7.492;2022-12-18T08:09:06;-6.00;99.90
74934;DHT22;63499;53.232;7.492;2022-12-18T08:11:34;-5.90;99.90
74934;DHT22;63499;53.232;7.492;2022-12-18T08:14:00;-5.90;99.90
74934;DHT22;63499;53.232;7.492;2022-12-18T08:16:26;-5.80;99.90
74934;DHT22;63499;53.232;7.492;2022-12-18T08:18:53;-5.80;99.90
74934;DHT22;63499;53.232;7.492;2022-12-18T08:21:21;-5.80;99.90
74934;DHT22;63499;53.232;7.492;2022-12-18T08:23:48;-5.80;99.90
74934;DHT22;63499;53.232;7.492;2022-12-18T08:26:15;-5.70;99.90
74934;DHT22;63499;53.232;7.492;2022-12-18T08:28:42;-5.70;99.90
74934;DHT22;63499;53.232;7.492;2022-12-18T08:31:08;-5.70;99.90
74934;DHT22;63499;53.232;7.492;2022-12-18T08:33:35;-5.70;99.90
74934;DHT22;63499;53.232;7.492;2022-12-18T08:36:01;-5.70;99.90
74934;DHT22;63499;53.232;7.492;2022-12-18T08:38:28;-5.60;99.90
74934;DHT22;63499;53.232;7.492;2022-12-18T08:41:08;-5.60;99.90
74934;DHT22;63499;53.232;7.492;2022-12-18T08:43:35;-5.50;99.90
74934;DHT22;63499;53.232;7.492;2022-12-18T08:46:20;-5.50;99.90
74934;DHT22;63499;53.232;7.492;2022-12-18T08:48:47;-5.40;99.90
74934;DHT22;63499;53.232;7.492;2022-12-18T08:51:18;-5.40;99.90
74934;DHT22;63499;53.232;7.492;2022-12-18T08:53:44;-5.30;99.90
74934;DHT22;63499;53.232;7.492;2022-12-18T08:56:10;-5.30;99.90
74934;DHT22;63499;53.232;7.492;2022-12-18T08:58:37;-5.30;99.90
74934;DHT22;63499;53.232;7.492;2022-12-18T09:01:03;-5.20;99.90
74934;DHT22;63499;53.232;7.492;2022-12-18T09:03:37;-5.20;99.90
74934;DHT22;63499;53.232;7.492;2022-12-18T09:06:04;-5.10;99.90
74934;DHT22;63499;53.232;7.492;2022-12-18T09:08:31;-5.10;99.90
74934;DHT22;63499;53.232;7.492;2022-12-18T09:10:57;-5.10;99.90
74934;DHT22;63499;53.232;7.492;2022-12-18T09:13:23;-5.10;99.90
74934;DHT22;63499;53.232;7.492;2022-12-18T09:15:53;-5.00;99.90
74934;DHT22;63499;53.232;7.492;2022-12-18T09:18:20;-5.10;99.90
74934;DHT22;63499;53.232;7.492;2022-12-18T09:20:46;-5.10;99.90
74934;DHT22;63499;53.232;7.492;2022-12-18T09:23:12;-5.10;99.90
74934;DHT22;63499;53.232;7.492;2022-12-18T09:25:38;-5.00;99.90
74934;DHT22;63499;53.232;7.492;2022-12-18T09:28:06;-5.00;99.90
74934;DHT22;63499;53.232;7.492;2022-12-18T09:30:34;-4.90;99.90
74934;DHT22;63499;53.232;7.492;2022-12-18T09:33:02;-4.80;99.90
74934;DHT22;63499;53.232;7.492;2022-12-18T09:35:28;-4.70;99.90
74934;DHT22;63499;53.232;7.492;2022-12-18T09:37:54;-4.70;99.90
74934;DHT22;63499;53.232;7.492;2022-12-18T09:40:22;-4.50;99.90
74934;DHT22;63499;53.232;7.492;2022-12-18T09:42:53;-4.50;99.90
74934;DHT22;63499;53.232;7.492;2022-12-18T09:45:21;-4.40;99.90
74934;DHT22;63499;53.232;7.492;2022-12-18T09:47:47;-4.30;99.90
74934;DHT22;63499;53.232;7.492;2022-12-18T09:52:50;-4.10;99.90
74934;DHT22;63499;53.232;7.492;2022-12-18T09:55:37;-4.10;99.90
74934;DHT22;63499;53.232;7.492;2022-12-18T10:00:46;-4.10;99.90
74934;DHT22;63499;53.232;7.492;2022-12-18T10:03:13;-4.00;99.90
74934;DHT22;63499;53.232;7.492;2022-12-18T10:21:11;-3.80;99.90
74934;DHT22;63499;53.232;7.492;2022-12-18T10:26:23;-3.80;99.90
74934;DHT22;63499;53.232;7.492;2022-12-18T10:28:50;-3.70;99.90
74934;DHT22;63499;53.232;7.492;2022-12-18T10:31:18;-3.60;99.90
74934;DHT22;63499;53.232;7.492;2022-12-18T10:33:44;-3.60;99.90
74934;DHT22;63499;53.232;7.492;2022-12-18T10:36:11;-3.50;99.90
74934;DHT22;63499;53.232;7.492;2022-12-18T10:38:37;-3.50;99.90
74934;DHT22;63499;53.232;7.492;2022-12-18T10:43:36;-3.40;99.90
74934;DHT22;63499;53.232;7.492;2022-12-18T10:51:07;-3.20;99.90
74934;DHT22;63499;53.232;7.492;2022-12-18T10:53:34;-3.10;99.90
74934;DHT22;63499;53.232;7.492;2022-12-18T10:56:02;-3.10;99.90
74934;DHT22;63499;53.232;7.492;2022-12-18T10:58:33;-3.00;99.90
74934;DHT22;63499;53.232;7.492;2022-12-18T11:01:07;-3.00;99.90
74934;DHT22;63499;53.232;7.492;2022-12-18T11:03:38;-2.90;99.90
74934;DHT22;63499;53.232;7.492;2022-12-18T11:06:15;-2.90;99.90
74934;DHT22;63499;53.232;7.492;2022-12-18T11:08:43;-2.90;99.90
74934;DHT22;63499;53.232;7.492;2022-12-18T11:11:19;-2.80;99.90
74934;DHT22;63499;53.232;7.492;2022-12-18T11:14:05;-2.80;99.90
74934;DHT22;63499;53.232;7.492;2022-12-18T11:16:36;-2.80;99.90
74934;DHT22;63499;53.232;7.492;2022-12-18T11:19:25;-2.70;99.90
74934;DHT22;63499;53.232;7.492;2022-12-18T11:21:52;-2.70;99.90
74934;DHT22;63499;53.232;7.492;2022-12-18T11:24:20;-2.60;99.90
74934;DHT22;63499;53.232;7.492;2022-12-18T11:26:47;-2.60;99.90
74934;DHT22;63499;53.232;7.492;2022-12-18T11:29:22;-2.60;99.90
74934;DHT22;63499;53.232;7.492;2022-12-18T11:31:49;-2.50;99.90
74934;DHT22;63499;53.232;7.492;2022-12-18T11:34:28;-2.60;99.90
74934;DHT22;63499;53.232;7.492;2022-12-18T11:36:56;-2.50;99.90
74934;DHT22;63499;53.232;7.492;2022-12-18T11:39:36;-2.60;99.90
74934;DHT22;63499;53.232;7.492;2022-12-18T11:50:05;-2.50;99.90
74934;DHT22;63499;53.232;7.492;2022-12-18T11:52:36;-2.50;99.90
74934;DHT22;63499;53.232;7.492;2022-12-18T11:55:28;-2.50;99.90
74934;DHT22;63499;53.232;7.492;2022-12-18T12:00:43;-2.50;99.90
74934;DHT22;63499;53.232;7.492;2022-12-18T12:03:21;-2.40;99.90
74934;DHT22;63499;53.232;7.492;2022-12-18T12:21:43;-2.30;99.90
74934;DHT22;63499;53.232;7.492;2022-12-18T12:26:45;-2.20;99.90
74934;DHT22;63499;53.232;7.492;2022-12-18T12:32:03;-2.20;99.90
74934;DHT22;63499;53.232;7.492;2022-12-18T12:39:56;-2.30;99.90
74934;DHT22;63499;53.232;7.492;2022-12-18T12:42:30;-2.30;99.90
74934;DHT22;63499;53.232;7.492;2022-12-18T12:45:18;-2.20;99.90
74934;DHT22;63499;53.232;7.492;2022-12-18T12:47:45;-2.20;99.90
74934;DHT22;63499;53.232;7.492;2022-12-18T12:50:14;-2.20;99.90
74934;DHT22;63499;53.232;7.492;2022-12-18T12:52:45;-2.20;99.90
74934;DHT22;63499;53.232;7.492;2022-12-18T12:55:33;-2.20;99.90
74934;DHT22;63499;53.232;7.492;2022-12-18T13:00:30;-2.20;99.90
74934;DHT22;63499;53.232;7.492;2022-12-18T13:03:08;-2.20;99.90
74934;DHT22;63499;53.232;7.492;2022-12-18T13:05:53;-2.20;99.90
74934;DHT22;63499;53.232;7.492;2022-12-18T13:08:27;-2.20;99.90
74934;DHT22;63499;53.232;7.492;2022-12-18T13:10:54;-2.10;99.90
74934;DHT22;63499;53.232;7.492;2022-12-18T13:13:50;-2.10;99.90
74934;DHT22;63499;53.232;7.492;2022-12-18T13:16:20;-2.10;99.90
74934;DHT22;63499;53.232;7.492;2022-12-18T13:18:50;-2.10;99.90
74934;DHT22;63499;53.232;7.492;2022-12-18T13:23:46;-2.10;99.90
74934;DHT22;63499;53.232;7.492;2022-12-18T13:33:43;-2.10;99.90
74934;DHT22;63499;53.232;7.492;2022-12-18T13:36:23;-2.10;99.90
74934;DHT22;63499;53.232;7.492;2022-12-18T13:42:38;-2.10;99.90
74934;DHT22;63499;53.232;7.492;2022-12-18T13:44:59;-2.10;99.90
74934;DHT22;63499;53.232;7.492;2022-12-18T13:47:27;-2.10;99.90
74934;DHT22;63499;53.232;7.492;2022-12-18T13:49:54;-2.10;99.90
74934;DHT22;63499;53.232;7.492;2022-12-18T13:52:21;-2.10;99.90
74934;DHT22;63499;53.232;7.492;2022-12-18T13:54:52;-2.10;99.90
74934;DHT22;63499;53.232;7.492;2022-12-18T13:57:33;-2.10;99.90
74934;DHT22;63499;53.232;7.492;2022-12-18T14:02:44;-2.00;99.90
74934;DHT22;63499;53.232;7.492;2022-12-18T14:08:13;-2.00;99.90
74934;DHT22;63499;53.232;7.492;2022-12-18T14:10:43;-2.00;99.90
74934;DHT22;63499;53.232;7.492;2022-12-18T14:13:14;-2.00;99.90
74934;DHT22;63499;53.232;7.492;2022-12-18T14:15:47;-2.10;99.90
74934;DHT22;63499;53.232;7.492;2022-12-18T14:20:41;-2.10;99.90
74934;DHT22;63499;53.232;7.492;2022-12-18T14:25:53;-2.10;99.90
74934;DHT22;63499;53.232;7.492;2022-12-18T14:28:19;-2.10;99.90
74934;DHT22;63499;53.232;7.492;2022-12-18T14:30:47;-2.10;99.90
74934;DHT22;63499;53.232;7.492;2022-12-18T14:33:14;-2.20;99.90
74934;DHT22;63499;53.232;7.492;2022-12-18T14:35:54;-2.20;99.90
74934;DHT22;63499;53.232;7.492;2022-12-18T14:40:51;-2.20;99.90
74934;DHT22;63499;53.232;7.492;2022-12-18T14:43:18;-2.20;99.90
74934;DHT22;63499;53.232;7.492;2022-12-18T14:45:44;-2.20;99.90
74934;DHT22;63499;53.232;7.492;2022-12-18T14:48:16;-2.20;99.90
74934;DHT22;63499;53.232;7.492;2022-12-18T14:50:43;-2.20;99.90
74934;DHT22;63499;53.232;7.492;2022-12-18T14:56:19;-2.20;99.90
74934;DHT22;63499;53.232;7.492;2022-12-18T14:58:53;-2.20;99.90
74934;DHT22;63499;53.232;7.492;2022-12-18T15:01:25;-2.20;99.90
74934;DHT22;63499;53.232;7.492;2022-12-18T15:03:52;-2.20;99.90
74934;DHT22;63499;53.232;7.492;2022-12-18T15:06:24;-2.30;99.90
74934;DHT22;63499;53.232;7.492;2022-12-18T15:08:51;-2.20;99.90
74934;DHT22;63499;53.232;7.492;2022-12-18T15:14:03;-2.30;99.90
74934;DHT22;63499;53.232;7.492;2022-12-18T15:16:49;-2.30;99.90
74934;DHT22;63499;53.232;7.492;2022-12-18T15:19:16;-2.30;99.90
74934;DHT22;63499;53.232;7.492;2022-12-18T15:21:42;-2.30;99.90
74934;DHT22;63499;53.232;7.492;2022-12-18T15:24:16;-2.20;99.90
74934;DHT22;63499;53.232;7.492;2022-12-18T15:26:43;-2.20;99.90
74934;DHT22;63499;53.232;7.492;2022-12-18T15:29:20;-2.20;99.90
74934;DHT22;63499;53.232;7.492;2022-12-18T15:31:58;-2.20;99.90
74934;DHT22;63499;53.232;7.492;2022-12-18T15:34:24;-2.20;99.90
74934;DHT22;63499;53.232;7.492;2022-12-18T15:36:52;-2.20;99.90
74934;DHT22;63499;53.232;7.492;2022-12-18T15:39:19;-2.20;99.90
74934;DHT22;63499;53.232;7.492;2022-12-18T15:41:46;-2.10;99.90
74934;DHT22;63499;53.232;7.492;2022-12-18T15:44:30;-2.10;99.90
74934;DHT22;63499;53.232;7.492;2022-12-18T15:46:57;-2.10;99.90
74934;DHT22;63499;53.232;7.492;2022-12-18T15:49:23;-2.10;99.90
74934;DHT22;63499;53.232;7.492;2022-12-18T15:51:51;-2.10;99.90
74934;DHT22;63499;53.232;7.492;2022-12-18T15:54:18;-2.10;99.90
74934;DHT22;63499;53.232;7.492;2022-12-18T15:57:04;-2.10;99.90
74934;DHT22;63499;53.232;7.492;2022-12-18T15:59:52;-2.00;99.90
74934;DHT22;63499;53.232;7.492;2022-12-18T16:02:20;-2.00;99.90
74934;DHT22;63499;53.232;7.492;2022-12-18T16:04:48;-2.00;99.90
74934;DHT22;63499;53.232;7.492;2022-12-18T16:07:15;-2.00;99.90
74934;DHT22;63499;53.232;7.492;2022-12-18T16:09:41;-2.00;99.90
74934;DHT22;63499;53.232;7.492;2022-12-18T16:12:26;-2.00;99.90
74934;DHT22;63499;53.232;7.492;2022-12-18T16:14:52;-2.00;99.90
74934;DHT22;63499;53.232;7.492;2022-12-18T16:17:18;-2.00;99.90
74934;DHT22;63499;53.232;7.492;2022-12-18T16:19:44;-2.00;99.90
74934;DHT22;63499;53.232;7.492;2022-12-18T16:22:20;-2.00;99.90
74934;DHT22;63499;53.232;7.492;2022-12-18T16:24:47;-2.00;99.90
74934;DHT22;63499;53.232;7.492;2022-12-18T16:27:14;-2.00;99.90
74934;DHT22;63499;53.232;7.492;2022-12-18T16:29:40;-2.00;99.90
74934;DHT22;63499;53.232;7.492;2022-12-18T16:32:08;-2.00;99.90
74934;DHT22;63499;53.232;7.492;2022-12-18T16:34:37;-2.00;99.90
74934;DHT22;63499;53.232;7.492;2022-12-18T16:37:04;-2.00;99.90
74934;DHT22;63499;53.232;7.492;2022-12-18T16:39:32;-2.00;99.90
74934;DHT22;63499;53.232;7.492;2022-12-18T16:42:00;-2.00;99.90
74934;DHT22;63499;53.232;7.492;2022-12-18T16:44:26;-1.90;99.90
74934;DHT22;63499;53.232;7.492;2022-12-18T16:46:53;-2.00;99.90
74934;DHT22;63499;53.232;7.492;2022-12-18T16:49:20;-1.90;99.90
74934;DHT22;63499;53.232;7.492;2022-12-18T16:51:47;-1.90;99.90
74934;DHT22;63499;53.232;7.492;2022-12-18T16:54:13;-1.90;99.90
74934;DHT22;63499;53.232;7.492;2022-12-18T16:56:40;-1.90;99.90
74934;DHT22;63499;53.232;7.492;2022-12-18T16:59:09;-1.90;99.90
74934;DHT22;63499;53.232;7.492;2022-12-18T17:01:36;-1.90;99.90
74934;DHT22;63499;53.232;7.492;2022-12-18T17:04:04;-1.80;99.90
74934;DHT22;63499;53.232;7.492;2022-12-18T17:06:32;-1.80;99.90
74934;DHT22;63499;53.232;7.492;2022-12-18T17:08:59;-1.80;99.90
74934;DHT22;63499;53.232;7.492;2022-12-18T17:11:26;-1.80;99.90
74934;DHT22;63499;53.232;7.492;2022-12-18T17:13:53;-1.80;99.90
74934;DHT22;63499;53.232;7.492;2022-12-18T17:16:20;-1.80;99.90
74934;DHT22;63499;53.232;7.492;2022-12-18T17:18:46;-1.70;99.90
74934;DHT22;63499;53.232;7.492;2022-12-18T17:21:13;-1.70;99.90
74934;DHT22;63499;53.232;7.492;2022-12-18T17:23:41;-1.70;99.90
74934;DHT22;63499;53.232;7.492;2022-12-18T17:26:08;-1.70;99.90
74934;DHT22;63499;53.232;7.492;2022-12-18T17:28:36;-1.70;99.90
74934;DHT22;63499;53.232;7.492;2022-12-18T17:31:09;-1.60;99.90
74934;DHT22;63499;53.232;7.492;2022-12-18T17:33:36;-1.60;99.90
74934;DHT22;63499;53.232;7.492;2022-12-18T17:36:02;-1.60;99.90
74934;DHT22;63499;53.232;7.492;2022-12-18T17:38:29;-1.60;99.90
74934;DHT22;63499;53.232;7.492;2022-12-18T17:40:59;-1.50;99.90
74934;DHT22;63499;53.232;7.492;2022-12-18T17:43:26;-1.50;99.90
74934;DHT22;63499;53.232;7.492;2022-12-18T17:45:52;-1.50;99.90
74934;DHT22;63499;53.232;7.492;2022-12-18T17:48:19;-1.50;99.90
74934;DHT22;63499;53.232;7.492;2022-12-18T17:50:45;-1.50;99.90